createdAt,value
2022-11-29T00:01:28.490Z,17.90
2022-11-29T00:03:55.936Z,18.27
2022-11-29T00:06:27.314Z,17.98
2022-11-29T00:08:59.529Z,16.95
2022-11-29T00:11:48.347Z,17.42
2022-11-29T00:14:17.613Z,17.38
2022-11-29T00:16:44.544Z,19.02
2022-11-29T00:19:12.961Z,17.98
2022-11-29T00:21:39.756Z,17.38
2022-11-29T00:24:07.324Z,18.33
2022-11-29T00:26:34.141Z,17.90
2022-11-29T00:29:00.882Z,18.27
2022-11-29T00:31:32.825Z,17.45
2022-11-29T00:34:01.643Z,18.05
2022-11-29T00:36:28.893Z,16.75
2022-11-29T00:38:56.038Z,16.42
2022-11-29T00:43:49.435Z,14.90
2022-11-29T00:46:16.580Z,15.98
2022-11-29T00:48:43.489Z,15.40
2022-11-29T00:51:10.339Z,15.02
2022-11-29T00:53:37.750Z,15.20
2022-11-29T00:56:06.047Z,15.02
2022-11-29T00:58:33.541Z,14.00
2022-11-29T01:01:00.447Z,13.85
2022-11-29T01:03:27.447Z,13.35
2022-11-29T01:06:01.315Z,13.07
2022-11-29T01:08:28.311Z,12.85
2022-11-29T01:11:21.655Z,11.77
2022-11-29T01:13:49.473Z,12.52
2022-11-29T01:16:16.609Z,12.68
2022-11-29T01:18:43.910Z,10.25
2022-11-29T01:21:16.825Z,11.00
2022-11-29T01:23:45.083Z,11.57
2022-11-29T01:26:14.589Z,11.88
2022-11-29T01:28:42.625Z,11.88
2022-11-29T01:31:12.667Z,11.93
2022-11-29T01:33:39.937Z,12.55
2022-11-29T01:36:08.330Z,10.90
2022-11-29T01:38:36.453Z,11.90
2022-11-29T01:41:22.007Z,11.45
2022-11-29T01:44:14.775Z,10.75
2022-11-29T01:46:43.937Z,10.73
2022-11-29T01:49:10.614Z,9.98
2022-11-29T01:51:40.302Z,10.02
2022-11-29T01:54:09.913Z,10.10
2022-11-29T01:56:38.661Z,9.50
2022-11-29T01:59:10.636Z,9.65
2022-11-29T02:01:38.346Z,9.73
2022-11-29T02:04:06.281Z,9.43
2022-11-29T02:06:33.713Z,9.15
2022-11-29T02:09:00.487Z,9.65
2022-11-29T02:11:35.825Z,10.20
2022-11-29T02:14:23.614Z,10.13
2022-11-29T02:17:28.580Z,9.38
2022-11-29T02:20:27.488Z,9.85
2022-11-29T02:23:06.610Z,9.77
2022-11-29T02:25:42.368Z,10.27
2022-11-29T02:28:30.302Z,10.15
2022-11-29T02:31:26.839Z,9.38
2022-11-29T02:34:07.550Z,10.32
2022-11-29T02:36:40.503Z,9.90
2022-11-29T02:39:19.331Z,10.00
2022-11-29T02:42:10.379Z,9.32
2022-11-29T02:45:01.400Z,10.68
2022-11-29T02:48:03.817Z,9.70
2022-11-29T02:50:55.594Z,10.65
2022-11-29T02:53:42.335Z,9.75
2022-11-29T02:56:46.860Z,9.90
2022-11-29T02:59:35.566Z,9.82
2022-11-29T03:02:31.464Z,10.15
2022-11-29T03:05:05.983Z,9.93
2022-11-29T03:07:59.991Z,9.52
2022-11-29T03:10:51.389Z,10.00
2022-11-29T03:13:33.774Z,9.32
2022-11-29T03:16:19.375Z,10.10
2022-11-29T03:19:16.333Z,10.45
2022-11-29T03:21:59.473Z,8.95
2022-11-29T03:24:55.919Z,10.07
2022-11-29T03:27:51.219Z,10.10
2022-11-29T03:30:19.231Z,10.02
2022-11-29T03:33:00.469Z,10.32
2022-11-29T03:36:00.661Z,9.38
2022-11-29T03:38:47.659Z,8.30
2022-11-29T03:41:36.807Z,9.73
2022-11-29T03:44:10.044Z,9.88
2022-11-29T03:46:58.866Z,9.40
2022-11-29T03:49:37.539Z,9.77
2022-11-29T03:52:08.715Z,9.68
2022-11-29T03:54:49.248Z,10.40
2022-11-29T03:57:23.552Z,10.57
2022-11-29T04:00:13.074Z,9.00
2022-11-29T04:02:39.849Z,9.50
2022-11-29T04:05:40.547Z,9.48
2022-11-29T04:08:20.777Z,10.40
2022-11-29T04:11:18.807Z,10.05
2022-11-29T04:13:45.458Z,10.07
2022-11-29T04:16:33.862Z,9.70
2022-11-29T04:19:12.472Z,9.65
2022-11-29T04:22:03.331Z,9.85
2022-11-29T04:24:54.663Z,8.88
2022-11-29T04:27:45.520Z,9.50
2022-11-29T04:30:26.049Z,10.05
2022-11-29T04:33:14.142Z,9.80
2022-11-29T04:35:52.991Z,9.60
2022-11-29T04:38:28.853Z,8.98
2022-11-29T04:41:04.196Z,8.98
2022-11-29T04:43:51.108Z,9.18
2022-11-29T04:46:40.616Z,9.38
2022-11-29T04:49:44.540Z,8.60
2022-11-29T04:52:28.427Z,9.35
2022-11-29T04:55:32.667Z,8.93
2022-11-29T04:58:11.565Z,8.18
2022-11-29T05:00:49.795Z,8.13
2022-11-29T05:03:35.579Z,8.75
2022-11-29T05:06:28.822Z,8.30
2022-11-29T05:09:04.546Z,8.70
2022-11-29T05:11:46.283Z,8.70
2022-11-29T05:14:24.968Z,9.32
2022-11-29T05:17:07.253Z,9.10
2022-11-29T05:19:41.599Z,9.98
2022-11-29T05:22:29.374Z,9.82
2022-11-29T05:25:00.887Z,9.95
2022-11-29T05:27:51.325Z,10.70
2022-11-29T05:30:23.591Z,9.85
2022-11-29T05:32:57.003Z,10.13
2022-11-29T05:35:40.598Z,10.02
2022-11-29T05:38:45.328Z,10.70
2022-11-29T05:41:30.761Z,9.43
2022-11-29T05:44:13.984Z,9.57
2022-11-29T05:46:56.832Z,10.02
2022-11-29T05:49:32.432Z,8.95
2022-11-29T05:52:44.199Z,9.45
2022-11-29T05:55:14.032Z,10.38
2022-11-29T05:58:17.578Z,10.27
2022-11-29T06:00:53.881Z,9.32
2022-11-29T06:03:42.893Z,9.40
2022-11-29T06:06:21.583Z,9.52
2022-11-29T06:09:05.949Z,9.88
2022-11-29T06:11:42.531Z,9.77
2022-11-29T06:14:14.608Z,9.10
2022-11-29T06:16:56.970Z,8.75
2022-11-29T06:19:46.839Z,9.65
2022-11-29T06:22:52.172Z,8.75
2022-11-29T06:25:50.047Z,8.45
2022-11-29T06:28:23.026Z,9.27
2022-11-29T06:30:56.014Z,9.52
2022-11-29T06:33:28.424Z,10.02
2022-11-29T06:36:21.706Z,9.82
2022-11-29T06:38:48.762Z,9.68
2022-11-29T06:43:49.944Z,9.18
2022-11-29T06:46:38.743Z,9.77
2022-11-29T06:49:21.775Z,9.10
2022-11-29T06:51:55.319Z,9.68
2022-11-29T06:54:50.777Z,9.20
2022-11-29T06:57:24.959Z,9.82
2022-11-29T07:00:06.701Z,9.60
2022-11-29T07:02:42.112Z,10.45
2022-11-29T07:05:31.403Z,8.30
2022-11-29T07:08:06.576Z,9.30
2022-11-29T07:10:39.783Z,7.50
2022-11-29T07:13:06.870Z,7.45
2022-11-29T07:18:00.390Z,7.40
2022-11-29T07:21:00.779Z,9.20
2022-11-29T07:24:04.901Z,10.82
2022-11-29T07:26:55.156Z,10.80
2022-11-29T07:29:49.732Z,10.65
2022-11-29T07:32:40.185Z,12.27
2022-11-29T07:35:45.839Z,11.40
2022-11-29T07:38:24.786Z,11.82
2022-11-29T07:40:58.928Z,12.80
2022-11-29T07:43:44.962Z,10.52
2022-11-29T07:46:11.842Z,11.13
2022-11-29T07:48:41.031Z,10.40
2022-11-29T07:51:08.699Z,10.02
2022-11-29T07:53:42.567Z,9.68
2022-11-29T07:56:09.727Z,8.75
2022-11-29T07:58:36.690Z,9.18
2022-11-29T08:01:04.027Z,9.65
2022-11-29T08:03:30.966Z,8.77
2022-11-29T08:05:57.815Z,8.70
2022-11-29T08:08:24.609Z,9.07
2022-11-29T08:10:51.612Z,8.98
2022-11-29T08:15:49.061Z,8.60
2022-11-29T08:18:16.445Z,9.32
2022-11-29T08:20:43.977Z,8.85
2022-11-29T08:23:14.075Z,8.57
2022-11-29T08:25:41.281Z,8.90
2022-11-29T08:28:08.548Z,9.05
2022-11-29T08:30:35.441Z,9.82
2022-11-29T08:33:02.269Z,9.30
2022-11-29T08:35:29.671Z,7.80
2022-11-29T08:37:56.517Z,8.95
2022-11-29T08:40:24.303Z,9.30
2022-11-29T08:42:51.198Z,9.10
2022-11-29T08:45:18.224Z,9.52
2022-11-29T08:50:15.247Z,8.77
2022-11-29T08:53:03.868Z,10.25
2022-11-29T08:55:40.631Z,9.82
2022-11-29T08:58:10.194Z,8.98
2022-11-29T09:00:37.420Z,9.15
2022-11-29T09:03:25.317Z,9.57
2022-11-29T09:05:53.048Z,8.57
2022-11-29T09:08:20.364Z,8.18
2022-11-29T09:10:48.013Z,8.00
2022-11-29T09:13:18.171Z,7.75
2022-11-29T09:15:45.244Z,7.22
2022-11-29T09:20:41.596Z,7.65
2022-11-29T09:23:08.359Z,7.72
2022-11-29T09:25:35.343Z,7.00
2022-11-29T09:30:31.610Z,8.63
2022-11-29T09:33:05.162Z,7.40
2022-11-29T09:35:32.982Z,7.57
2022-11-29T09:37:59.781Z,6.70
2022-11-29T09:40:33.965Z,8.30
2022-11-29T09:43:35.504Z,7.78
2022-11-29T09:46:22.582Z,7.90
2022-11-29T09:49:02.852Z,6.80
2022-11-29T09:52:05.390Z,7.00
2022-11-29T09:54:41.075Z,7.28
2022-11-29T09:57:10.855Z,7.60
2022-11-29T09:59:42.882Z,7.68
2022-11-29T10:02:21.365Z,6.72
2022-11-29T10:04:53.973Z,6.60
2022-11-29T10:07:27.960Z,8.07
2022-11-29T10:10:16.701Z,7.50
2022-11-29T10:13:24.336Z,7.65
2022-11-29T10:15:55.159Z,7.03
2022-11-29T10:18:44.780Z,6.75
2022-11-29T10:21:16.998Z,7.20
2022-11-29T10:23:48.235Z,7.25
2022-11-29T10:26:15.180Z,7.63
2022-11-29T10:31:22.194Z,7.20
2022-11-29T10:33:50.015Z,7.35
2022-11-29T10:36:39.021Z,7.03
2022-11-29T10:39:39.741Z,7.47
2022-11-29T10:42:32.967Z,7.32
2022-11-29T10:45:00.475Z,7.45
2022-11-29T10:47:27.428Z,7.45
2022-11-29T10:52:23.519Z,9.20
2022-11-29T10:54:54.007Z,11.50
2022-11-29T10:57:22.367Z,11.90
2022-11-29T10:59:59.338Z,11.38
2022-11-29T11:02:27.635Z,11.27
2022-11-29T11:04:54.699Z,10.73
2022-11-29T11:09:57.142Z,11.55
2022-11-29T11:12:28.495Z,10.82
2022-11-29T11:15:33.689Z,10.10
2022-11-29T11:20:31.881Z,10.75
2022-11-29T11:23:03.552Z,10.60
2022-11-29T11:25:36.376Z,11.40
2022-11-29T11:28:15.490Z,11.45
2022-11-29T11:30:50.846Z,10.27
2022-11-29T11:33:29.946Z,11.55
2022-11-29T11:36:24.283Z,11.43
2022-11-29T11:38:57.899Z,10.77
2022-11-29T11:41:52.140Z,11.27
2022-11-29T11:44:47.964Z,11.40
2022-11-29T11:47:20.912Z,10.57
2022-11-29T11:50:02.624Z,11.15
2022-11-29T11:52:50.345Z,11.35
2022-11-29T11:55:38.524Z,10.85
2022-11-29T11:58:14.536Z,11.13
2022-11-29T12:01:07.344Z,10.32
2022-11-29T12:04:15.113Z,10.85
2022-11-29T12:06:41.836Z,10.32
2022-11-29T12:09:08.672Z,9.90
2022-11-29T12:11:47.686Z,10.25
2022-11-29T12:14:38.118Z,9.75
2022-11-29T12:17:23.443Z,10.30
2022-11-29T12:20:17.805Z,9.25
2022-11-29T12:22:53.437Z,8.98
2022-11-29T12:25:26.207Z,9.38
2022-11-29T12:27:53.309Z,9.88
2022-11-29T12:30:20.417Z,8.50
2022-11-29T12:33:13.340Z,9.18
2022-11-29T12:35:46.351Z,8.40
2022-11-29T12:38:43.813Z,9.35
2022-11-29T12:41:29.523Z,8.70
2022-11-29T12:44:11.497Z,10.35
2022-11-29T12:46:38.888Z,9.32
2022-11-29T12:49:28.760Z,9.43
2022-11-29T12:52:13.953Z,8.77
2022-11-29T12:54:43.920Z,8.93
2022-11-29T12:57:49.677Z,8.95
2022-11-29T13:00:19.417Z,8.00
2022-11-29T13:02:57.803Z,8.93
2022-11-29T13:05:33.989Z,8.35
2022-11-29T13:08:16.561Z,9.02
2022-11-29T13:11:02.168Z,9.35
2022-11-29T13:13:44.922Z,9.38
2022-11-29T13:16:31.480Z,10.13
2022-11-29T13:19:15.067Z,9.68
2022-11-29T13:21:56.376Z,9.73
2022-11-29T13:24:31.408Z,9.40
2022-11-29T13:27:01.102Z,8.95
2022-11-29T13:29:28.952Z,9.68
2022-11-29T13:31:57.607Z,10.40
2022-11-29T13:34:35.708Z,9.43
2022-11-29T13:37:13.061Z,9.35
2022-11-29T13:40:04.738Z,9.88
2022-11-29T13:42:54.064Z,10.02
2022-11-29T13:45:37.808Z,9.38
2022-11-29T13:48:27.659Z,9.32
2022-11-29T13:50:57.320Z,8.88
2022-11-29T13:53:30.726Z,9.27
2022-11-29T13:58:30.733Z,9.15
2022-11-29T14:01:01.868Z,8.75
2022-11-29T14:03:32.695Z,8.82
2022-11-29T14:06:03.109Z,9.02
2022-11-29T14:08:48.144Z,9.02
2022-11-29T14:11:48.893Z,8.20
2022-11-29T14:14:21.630Z,9.18
2022-11-29T14:16:57.780Z,8.23
2022-11-29T14:19:33.758Z,9.02
2022-11-29T14:22:07.077Z,8.88
2022-11-29T14:24:36.768Z,8.82
2022-11-29T14:27:06.268Z,8.55
2022-11-29T14:29:51.011Z,8.95
2022-11-29T14:32:22.136Z,9.20
2022-11-29T14:35:01.883Z,8.80
2022-11-29T14:40:36.139Z,8.65
2022-11-29T14:43:15.086Z,8.95
2022-11-29T14:45:41.987Z,8.35
2022-11-29T14:48:30.134Z,8.68
2022-11-29T14:51:16.503Z,9.27
2022-11-29T14:53:45.544Z,8.77
2022-11-29T14:56:31.132Z,9.10
2022-11-29T14:59:35.081Z,8.88
2022-11-29T15:02:08.170Z,9.50
2022-11-29T15:04:37.520Z,10.25
2022-11-29T15:07:05.900Z,8.90
2022-11-29T15:09:34.382Z,9.43
2022-11-29T15:12:23.978Z,9.73
2022-11-29T15:15:15.473Z,9.95
2022-11-29T15:17:54.603Z,9.70
2022-11-29T15:20:51.402Z,9.73
2022-11-29T15:23:19.469Z,9.98
2022-11-29T15:25:49.632Z,10.05
2022-11-29T15:28:28.480Z,9.93
2022-11-29T15:31:10.780Z,10.38
2022-11-29T15:33:40.901Z,10.63
2022-11-29T15:36:22.549Z,10.43
2022-11-29T15:38:55.939Z,9.88
2022-11-29T15:44:00.171Z,10.45
2022-11-29T15:46:29.578Z,11.10
2022-11-29T15:49:18.122Z,10.73
2022-11-29T15:51:49.470Z,11.02
2022-11-29T15:54:29.107Z,11.02
2022-11-29T15:57:17.932Z,11.38
2022-11-29T16:00:01.425Z,10.90
2022-11-29T16:02:34.592Z,10.85
2022-11-29T16:05:15.205Z,11.15
2022-11-29T16:07:44.081Z,10.73
2022-11-29T16:10:18.964Z,11.23
2022-11-29T16:13:02.309Z,11.32
2022-11-29T16:15:32.667Z,11.80
2022-11-29T16:18:11.181Z,11.13
2022-11-29T16:20:38.145Z,12.05
2022-11-29T16:25:47.727Z,12.70
2022-11-29T16:28:14.694Z,11.70
2022-11-29T16:30:44.573Z,13.15
2022-11-29T16:33:21.445Z,12.73
2022-11-29T16:35:48.466Z,13.23
2022-11-29T16:41:01.827Z,12.52
2022-11-29T16:43:48.506Z,11.93
2022-11-29T16:46:21.195Z,11.77
2022-11-29T16:48:49.754Z,12.32
2022-11-29T16:51:27.026Z,13.20
2022-11-29T16:53:55.788Z,12.30
2022-11-29T16:56:27.793Z,12.73
2022-11-29T16:59:25.704Z,13.13
2022-11-29T17:01:48.498Z,12.73
2022-11-29T17:04:24.372Z,13.40
2022-11-29T17:06:55.302Z,13.13
2022-11-29T17:09:28.140Z,13.32
2022-11-29T17:11:56.287Z,12.90
2022-11-29T17:14:23.390Z,13.05
2022-11-29T17:16:50.517Z,12.85
2022-11-29T17:19:24.315Z,13.05
2022-11-29T17:21:52.775Z,12.75
2022-11-29T17:24:22.168Z,12.93
2022-11-29T17:26:49.393Z,12.90
2022-11-29T17:29:17.522Z,11.93
2022-11-29T17:31:46.162Z,12.48
2022-11-29T17:34:13.188Z,12.68
2022-11-29T17:36:40.632Z,11.73
2022-11-29T17:39:07.948Z,11.55
2022-11-29T17:41:35.195Z,11.45
2022-11-29T17:44:02.109Z,12.43
2022-11-29T17:46:31.457Z,12.82
2022-11-29T17:49:06.582Z,12.63
2022-11-29T17:54:24.360Z,12.23
2022-11-29T17:56:51.903Z,12.27
2022-11-29T17:59:19.140Z,12.38
2022-11-29T18:01:49.135Z,12.38
2022-11-29T18:04:16.118Z,13.45
2022-11-29T18:06:43.641Z,12.93
2022-11-29T18:09:11.167Z,13.07
2022-11-29T18:11:48.597Z,12.52
2022-11-29T18:14:22.981Z,13.63
2022-11-29T18:16:50.310Z,13.48
2022-11-29T18:19:20.065Z,13.48
2022-11-29T18:21:47.357Z,13.27
2022-11-29T18:24:14.359Z,12.65
2022-11-29T18:26:41.308Z,13.73
2022-11-29T18:29:08.804Z,13.00
2022-11-29T18:31:37.911Z,14.00
2022-11-29T18:34:07.160Z,14.70
2022-11-29T18:36:37.325Z,13.75
2022-11-29T18:39:10.593Z,13.57
2022-11-29T18:41:37.934Z,13.55
2022-11-29T18:44:07.633Z,13.32
2022-11-29T18:46:37.169Z,13.02
2022-11-29T18:49:09.355Z,13.73
2022-11-29T18:51:37.330Z,11.88
2022-11-29T18:54:05.175Z,13.45
2022-11-29T18:56:34.437Z,12.65
2022-11-29T18:59:04.485Z,12.45
2022-11-29T19:01:34.120Z,13.00
2022-11-29T19:04:02.229Z,13.15
2022-11-29T19:06:39.444Z,12.25
2022-11-29T19:09:08.503Z,12.30
2022-11-29T19:11:35.304Z,12.63
2022-11-29T19:14:11.682Z,12.50
2022-11-29T19:16:40.857Z,12.52
2022-11-29T19:19:07.765Z,12.45
2022-11-29T19:21:34.846Z,12.38
2022-11-29T19:26:31.522Z,11.95
2022-11-29T19:29:00.392Z,12.43
2022-11-29T19:31:28.014Z,12.75
2022-11-29T19:33:56.013Z,12.75
2022-11-29T19:36:30.403Z,16.40
2022-11-29T19:38:59.328Z,12.18
2022-11-29T19:41:31.727Z,13.05
2022-11-29T19:44:06.952Z,13.35
2022-11-29T19:46:40.553Z,13.05
2022-11-29T19:49:08.833Z,12.80
2022-11-29T19:51:36.515Z,12.68
2022-11-29T19:54:06.128Z,12.07
2022-11-29T19:56:33.287Z,12.32
2022-11-29T19:59:00.135Z,13.43
2022-11-29T20:01:37.894Z,12.90
2022-11-29T20:04:07.420Z,11.95
2022-11-29T20:06:34.483Z,12.70
2022-11-29T20:11:29.031Z,12.20
2022-11-29T20:16:25.111Z,12.60
2022-11-29T20:18:52.974Z,12.32
2022-11-29T20:21:23.224Z,14.80
2022-11-29T20:23:54.311Z,14.38
2022-11-29T20:26:21.630Z,14.35
2022-11-29T20:28:48.412Z,15.20
2022-11-29T20:31:18.012Z,15.35
2022-11-29T20:33:46.332Z,14.27
2022-11-29T20:36:27.919Z,12.57
2022-11-29T20:38:58.262Z,14.63
2022-11-29T20:41:27.957Z,15.35
2022-11-29T20:43:57.978Z,14.82
2022-11-29T20:46:25.910Z,13.50
2022-11-29T20:49:00.416Z,13.55
2022-11-29T20:51:43.450Z,14.93
2022-11-29T20:54:11.914Z,13.52
2022-11-29T20:56:38.649Z,14.05
2022-11-29T20:59:05.499Z,12.65
2022-11-29T21:01:32.424Z,13.05
2022-11-29T21:03:59.316Z,11.98
2022-11-29T21:06:26.169Z,10.60
2022-11-29T21:08:53.908Z,10.95
2022-11-29T21:11:22.236Z,11.05
2022-11-29T21:13:49.456Z,11.13
2022-11-29T21:16:16.926Z,11.18
2022-11-29T21:18:44.117Z,11.45
2022-11-29T21:24:06.806Z,12.13
2022-11-29T21:26:47.076Z,12.18
2022-11-29T21:29:15.578Z,11.82
2022-11-29T21:31:43.037Z,11.45
2022-11-29T21:34:10.138Z,11.77
2022-11-29T21:36:38.104Z,11.90
2022-11-29T21:39:06.784Z,12.15
2022-11-29T21:41:33.991Z,12.27
2022-11-29T21:44:08.586Z,12.25
2022-11-29T21:46:35.989Z,10.45
2022-11-29T21:51:29.409Z,11.45
2022-11-29T21:53:56.302Z,11.25
2022-11-29T21:56:23.051Z,11.20
2022-11-29T21:58:49.845Z,11.27
2022-11-29T22:01:19.580Z,11.63
2022-11-29T22:03:46.785Z,12.38
2022-11-29T22:08:45.530Z,11.38
2022-11-29T22:11:15.572Z,10.93
2022-11-29T22:14:02.641Z,11.88
2022-11-29T22:16:30.409Z,11.20
2022-11-29T22:18:57.296Z,12.10
2022-11-29T22:21:24.128Z,11.95
2022-11-29T22:23:52.827Z,11.43
2022-11-29T22:26:19.541Z,11.35
2022-11-29T22:28:46.366Z,12.02
2022-11-29T22:31:13.310Z,11.40
2022-11-29T22:33:40.418Z,11.30
2022-11-29T22:36:12.221Z,11.05
2022-11-29T22:38:40.141Z,11.02
2022-11-29T22:41:12.441Z,12.02
2022-11-29T22:43:40.209Z,11.23
2022-11-29T22:46:24.513Z,11.48
2022-11-29T22:48:55.388Z,11.02
2022-11-29T22:51:27.500Z,10.98
2022-11-29T22:53:56.174Z,9.90
2022-11-29T22:56:25.481Z,11.30
2022-11-29T22:58:52.225Z,10.55
2022-11-29T23:01:24.243Z,10.63
2022-11-29T23:03:54.253Z,10.70
2022-11-29T23:06:26.467Z,12.63
2022-11-29T23:08:55.451Z,10.52
2022-11-29T23:11:28.396Z,11.77
2022-11-29T23:13:55.861Z,11.13
2022-11-29T23:16:25.594Z,11.77
2022-11-29T23:18:53.802Z,11.02
2022-11-29T23:21:32.036Z,11.43
2022-11-29T23:24:01.815Z,11.88
2022-11-29T23:26:36.418Z,12.57
2022-11-29T23:29:04.798Z,10.80
2022-11-29T23:31:31.791Z,11.05
2022-11-29T23:33:58.696Z,12.02
2022-11-29T23:36:25.413Z,11.63
2022-11-29T23:38:52.261Z,12.13
2022-11-29T23:41:19.016Z,12.00
2022-11-29T23:43:45.816Z,12.20
2022-11-29T23:46:15.188Z,12.10
2022-11-29T23:48:42.951Z,12.70
2022-11-29T23:51:10.576Z,13.05
2022-11-29T23:53:37.544Z,12.60
2022-11-29T23:56:14.108Z,11.13
2022-11-29T23:58:41.418Z,12.18
